sensor_id;sensor_type;location;lat;lon;timestamp;temperature;humidity
18260;DHT22;9256;52.236;5.712;2023-05-16T00:00:39;8.30;99.90
18260;DHT22;9256;52.236;5.712;2023-05-16T00:03:06;8.20;99.90
18260;DHT22;9256;52.236;5.712;2023-05-16T00:05:35;8.30;99.90
18260;DHT22;9256;52.236;5.712;2023-05-16T00:08:02;8.20;99.90
18260;DHT22;9256;52.236;5.712;2023-05-16T00:10:31;8.20;99.90
18260;DHT22;9256;52.236;5.712;2023-05-16T00:12:58;8.20;99.90
18260;DHT22;9256;52.236;5.712;2023-05-16T00:15:26;8.10;99.90
18260;DHT22;9256;52.236;5.712;2023-05-16T00:17:54;8.20;99.90
18260;DHT22;9256;52.236;5.712;2023-05-16T00:20:23;8.20;99.90
18260;DHT22;9256;52.236;5.712;2023-05-16T00:22:50;8.00;99.90
18260;DHT22;9256;52.236;5.712;2023-05-16T00:25:17;8.00;99.90
18260;DHT22;9256;52.236;5.712;2023-05-16T00:27:45;8.00;99.90
18260;DHT22;9256;52.236;5.712;2023-05-16T00:30:13;8.00;99.90
18260;DHT22;9256;52.236;5.712;2023-05-16T00:32:39;7.90;99.90
18260;DHT22;9256;52.236;5.712;2023-05-16T00:35:07;7.90;99.90
18260;DHT22;9256;52.236;5.712;2023-05-16T00:37:35;7.90;99.90
18260;DHT22;9256;52.236;5.712;2023-05-16T00:40:03;7.90;99.90
18260;DHT22;9256;52.236;5.712;2023-05-16T00:42:30;7.80;99.90
18260;DHT22;9256;52.236;5.712;2023-05-16T00:44:59;7.80;99.90
18260;DHT22;9256;52.236;5.712;2023-05-16T00:47:26;7.80;99.90
18260;DHT22;9256;52.236;5.712;2023-05-16T00:49:53;7.80;99.90
18260;DHT22;9256;52.236;5.712;2023-05-16T00:52:20;7.70;99.90
18260;DHT22;9256;52.236;5.712;2023-05-16T00:54:47;7.70;99.90
18260;DHT22;9256;52.236;5.712;2023-05-16T00:57:14;7.70;99.90
18260;DHT22;9256;52.236;5.712;2023-05-16T00:59:42;7.60;99.90
18260;DHT22;9256;52.236;5.712;2023-05-16T01:02:12;7.60;99.90
18260;DHT22;9256;52.236;5.712;2023-05-16T01:04:39;7.50;99.90
18260;DHT22;9256;52.236;5.712;2023-05-16T01:07:07;7.50;99.90
18260;DHT22;9256;52.236;5.712;2023-05-16T01:09:34;7.60;99.90
18260;DHT22;9256;52.236;5.712;2023-05-16T01:12:06;7.60;99.90
18260;DHT22;9256;52.236;5.712;2023-05-16T01:14:40;7.60;99.90
18260;DHT22;9256;52.236;5.712;2023-05-16T01:17:19;7.50;99.90
18260;DHT22;9256;52.236;5.712;2023-05-16T01:19:53;7.50;99.90
18260;DHT22;9256;52.236;5.712;2023-05-16T01:22:29;7.50;99.90
18260;DHT22;9256;52.236;5.712;2023-05-16T01:25:09;7.50;99.90
18260;DHT22;9256;52.236;5.712;2023-05-16T01:27:39;7.40;99.90
18260;DHT22;9256;52.236;5.712;2023-05-16T01:30:14;7.40;99.90
18260;DHT22;9256;52.236;5.712;2023-05-16T01:32:41;7.30;99.90
18260;DHT22;9256;52.236;5.712;2023-05-16T01:35:11;7.30;99.90
18260;DHT22;9256;52.236;5.712;2023-05-16T01:37:41;7.30;99.90
18260;DHT22;9256;52.236;5.712;2023-05-16T01:40:16;7.20;99.90
18260;DHT22;9256;52.236;5.712;2023-05-16T01:42:49;7.20;99.90
18260;DHT22;9256;52.236;5.712;2023-05-16T01:45:21;7.20;99.90
18260;DHT22;9256;52.236;5.712;2023-05-16T01:47:57;7.20;99.90
18260;DHT22;9256;52.236;5.712;2023-05-16T01:50:28;7.20;99.90
18260;DHT22;9256;52.236;5.712;2023-05-16T01:53:00;7.20;99.90
18260;DHT22;9256;52.236;5.712;2023-05-16T01:55:38;7.30;99.90
18260;DHT22;9256;52.236;5.712;2023-05-16T01:58:09;7.30;99.90
18260;DHT22;9256;52.236;5.712;2023-05-16T02:00:36;7.40;99.90
18260;DHT22;9256;52.236;5.712;2023-05-16T02:03:03;7.50;99.90
18260;DHT22;9256;52.236;5.712;2023-05-16T02:05:31;7.50;99.90
18260;DHT22;9256;52.236;5.712;2023-05-16T02:07:58;7.40;99.90
18260;DHT22;9256;52.236;5.712;2023-05-16T02:10:26;7.40;99.90
18260;DHT22;9256;52.236;5.712;2023-05-16T02:12:53;7.40;99.90
18260;DHT22;9256;52.236;5.712;2023-05-16T02:15:21;7.50;99.90
18260;DHT22;9256;52.236;5.712;2023-05-16T02:17:48;7.50;99.90
18260;DHT22;9256;52.236;5.712;2023-05-16T02:20:15;7.60;99.90
18260;DHT22;9256;52.236;5.712;2023-05-16T02:22:42;7.50;99.90
18260;DHT22;9256;52.236;5.712;2023-05-16T02:25:13;7.60;99.90
18260;DHT22;9256;52.236;5.712;2023-05-16T02:27:40;7.70;99.90
18260;DHT22;9256;52.236;5.712;2023-05-16T02:30:08;7.70;99.90
18260;DHT22;9256;52.236;5.712;2023-05-16T02:32:37;7.80;99.90
18260;DHT22;9256;52.236;5.712;2023-05-16T02:35:05;7.90;99.90
18260;DHT22;9256;52.236;5.712;2023-05-16T02:37:32;8.00;99.90
18260;DHT22;9256;52.236;5.712;2023-05-16T02:39:59;8.10;99.90
18260;DHT22;9256;52.236;5.712;2023-05-16T02:42:26;8.00;99.90
18260;DHT22;9256;52.236;5.712;2023-05-16T02:44:53;8.00;99.90
18260;DHT22;9256;52.236;5.712;2023-05-16T02:47:21;8.00;99.90
18260;DHT22;9256;52.236;5.712;2023-05-16T02:49:49;8.00;99.90
18260;DHT22;9256;52.236;5.712;2023-05-16T02:52:17;8.00;99.90
18260;DHT22;9256;52.236;5.712;2023-05-16T02:54:44;7.90;99.90
18260;DHT22;9256;52.236;5.712;2023-05-16T02:57:11;7.90;99.90
18260;DHT22;9256;52.236;5.712;2023-05-16T02:59:38;7.80;99.90
18260;DHT22;9256;52.236;5.712;2023-05-16T03:02:05;7.80;99.90
18260;DHT22;9256;52.236;5.712;2023-05-16T03:04:32;7.80;99.90
18260;DHT22;9256;52.236;5.712;2023-05-16T03:07:01;7.90;99.90
18260;DHT22;9256;52.236;5.712;2023-05-16T03:09:27;8.00;99.90
18260;DHT22;9256;52.236;5.712;2023-05-16T03:11:54;8.00;99.90
18260;DHT22;9256;52.236;5.712;2023-05-16T03:14:21;8.00;99.90
18260;DHT22;9256;52.236;5.712;2023-05-16T03:16:48;8.10;99.90
18260;DHT22;9256;52.236;5.712;2023-05-16T03:19:16;8.20;99.90
18260;DHT22;9256;52.236;5.712;2023-05-16T03:21:43;8.20;99.90
18260;DHT22;9256;52.236;5.712;2023-05-16T03:24:11;8.20;99.90
18260;DHT22;9256;52.236;5.712;2023-05-16T03:26:38;8.20;99.90
18260;DHT22;9256;52.236;5.712;2023-05-16T03:29:05;8.10;99.90
18260;DHT22;9256;52.236;5.712;2023-05-16T03:31:32;8.20;99.90
18260;DHT22;9256;52.236;5.712;2023-05-16T03:33:59;8.00;99.90
18260;DHT22;9256;52.236;5.712;2023-05-16T03:36:26;7.90;99.90
18260;DHT22;9256;52.236;5.712;2023-05-16T03:38:53;7.90;99.90
18260;DHT22;9256;52.236;5.712;2023-05-16T03:41:21;7.70;99.90
18260;DHT22;9256;52.236;5.712;2023-05-16T03:43:48;7.70;99.90
18260;DHT22;9256;52.236;5.712;2023-05-16T03:46:15;7.60;99.90
18260;DHT22;9256;52.236;5.712;2023-05-16T03:48:42;7.60;99.90
18260;DHT22;9256;52.236;5.712;2023-05-16T03:51:09;7.60;99.90
18260;DHT22;9256;52.236;5.712;2023-05-16T03:53:36;7.60;99.90
18260;DHT22;9256;52.236;5.712;2023-05-16T03:56:04;7.60;99.90
18260;DHT22;9256;52.236;5.712;2023-05-16T03:58:32;7.70;99.90
18260;DHT22;9256;52.236;5.712;2023-05-16T04:00:59;7.70;99.90
18260;DHT22;9256;52.236;5.712;2023-05-16T04:03:26;7.90;99.90
18260;DHT22;9256;52.236;5.712;2023-05-16T04:05:54;7.90;99.90
18260;DHT22;9256;52.236;5.712;2023-05-16T04:08:21;7.90;99.90
18260;DHT22;9256;52.236;5.712;2023-05-16T04:10:48;7.90;99.90
18260;DHT22;9256;52.236;5.712;2023-05-16T04:13:15;7.90;99.90
18260;DHT22;9256;52.236;5.712;2023-05-16T04:15:43;7.90;99.90
18260;DHT22;9256;52.236;5.712;2023-05-16T04:18:11;7.80;99.90
18260;DHT22;9256;52.236;5.712;2023-05-16T04:20:38;7.80;99.90
18260;DHT22;9256;52.236;5.712;2023-05-16T04:23:07;7.80;99.90
18260;DHT22;9256;52.236;5.712;2023-05-16T04:25:35;7.80;99.90
18260;DHT22;9256;52.236;5.712;2023-05-16T04:28:02;7.70;99.90
18260;DHT22;9256;52.236;5.712;2023-05-16T04:30:29;7.70;99.90
18260;DHT22;9256;52.236;5.712;2023-05-16T04:32:57;7.80;99.90
18260;DHT22;9256;52.236;5.712;2023-05-16T04:35:25;7.80;99.90
18260;DHT22;9256;52.236;5.712;2023-05-16T04:37:52;7.80;99.90
18260;DHT22;9256;52.236;5.712;2023-05-16T04:40:19;8.00;99.90
18260;DHT22;9256;52.236;5.712;2023-05-16T04:42:46;8.00;99.90
18260;DHT22;9256;52.236;5.712;2023-05-16T04:45:14;8.00;99.90
18260;DHT22;9256;52.236;5.712;2023-05-16T04:47:41;8.20;99.90
18260;DHT22;9256;52.236;5.712;2023-05-16T04:50:10;8.30;99.90
18260;DHT22;9256;52.236;5.712;2023-05-16T04:52:36;8.30;99.90
18260;DHT22;9256;52.236;5.712;2023-05-16T04:55:04;8.30;99.90
18260;DHT22;9256;52.236;5.712;2023-05-16T04:57:31;8.20;99.90
18260;DHT22;9256;52.236;5.712;2023-05-16T04:59:58;8.20;99.90
18260;DHT22;9256;52.236;5.712;2023-05-16T05:02:25;8.40;99.90
18260;DHT22;9256;52.236;5.712;2023-05-16T05:04:52;8.40;99.90
18260;DHT22;9256;52.236;5.712;2023-05-16T05:07:20;8.50;99.90
18260;DHT22;9256;52.236;5.712;2023-05-16T05:09:47;8.40;99.90
18260;DHT22;9256;52.236;5.712;2023-05-16T05:12:14;8.50;99.90
18260;DHT22;9256;52.236;5.712;2023-05-16T05:14:41;8.60;99.90
18260;DHT22;9256;52.236;5.712;2023-05-16T05:17:08;8.70;99.90
18260;DHT22;9256;52.236;5.712;2023-05-16T05:19:35;8.60;99.90
18260;DHT22;9256;52.236;5.712;2023-05-16T05:22:02;8.60;99.90
18260;DHT22;9256;52.236;5.712;2023-05-16T05:24:30;8.60;99.90
18260;DHT22;9256;52.236;5.712;2023-05-16T05:26:57;8.70;99.90
18260;DHT22;9256;52.236;5.712;2023-05-16T05:29:24;8.70;99.90
18260;DHT22;9256;52.236;5.712;2023-05-16T05:31:51;8.60;99.90
18260;DHT22;9256;52.236;5.712;2023-05-16T05:34:18;8.70;99.90
18260;DHT22;9256;52.236;5.712;2023-05-16T05:36:45;8.60;99.90
18260;DHT22;9256;52.236;5.712;2023-05-16T05:39:12;8.60;99.90
18260;DHT22;9256;52.236;5.712;2023-05-16T05:41:40;8.50;99.90
18260;DHT22;9256;52.236;5.712;2023-05-16T05:44:07;8.70;99.90
18260;DHT22;9256;52.236;5.712;2023-05-16T05:46:34;8.70;99.90
18260;DHT22;9256;52.236;5.712;2023-05-16T05:49:01;8.80;99.90
18260;DHT22;9256;52.236;5.712;2023-05-16T05:51:28;8.70;99.90
18260;DHT22;9256;52.236;5.712;2023-05-16T05:53:55;8.60;99.90
18260;DHT22;9256;52.236;5.712;2023-05-16T05:56:22;8.60;99.90
18260;DHT22;9256;52.236;5.712;2023-05-16T05:58:51;8.60;99.90
18260;DHT22;9256;52.236;5.712;2023-05-16T06:01:18;8.70;99.90
18260;DHT22;9256;52.236;5.712;2023-05-16T06:03:45;8.70;99.90
18260;DHT22;9256;52.236;5.712;2023-05-16T06:06:12;8.80;99.90
18260;DHT22;9256;52.236;5.712;2023-05-16T06:08:40;9.00;99.90
18260;DHT22;9256;52.236;5.712;2023-05-16T06:11:07;9.20;99.90
18260;DHT22;9256;52.236;5.712;2023-05-16T06:13:34;9.30;99.90
18260;DHT22;9256;52.236;5.712;2023-05-16T06:16:03;9.50;99.90
18260;DHT22;9256;52.236;5.712;2023-05-16T06:18:30;9.60;99.90
18260;DHT22;9256;52.236;5.712;2023-05-16T06:20:57;9.70;99.90
18260;DHT22;9256;52.236;5.712;2023-05-16T06:23:24;9.80;99.90
18260;DHT22;9256;52.236;5.712;2023-05-16T06:25:51;10.00;99.90
18260;DHT22;9256;52.236;5.712;2023-05-16T06:28:18;10.00;99.90
18260;DHT22;9256;52.236;5.712;2023-05-16T06:30:45;10.10;99.90
18260;DHT22;9256;52.236;5.712;2023-05-16T06:33:14;10.30;99.90
18260;DHT22;9256;52.236;5.712;2023-05-16T06:35:41;10.20;99.90
18260;DHT22;9256;52.236;5.712;2023-05-16T06:38:08;10.40;99.90
18260;DHT22;9256;52.236;5.712;2023-05-16T06:40:35;10.40;99.90
18260;DHT22;9256;52.236;5.712;2023-05-16T06:43:02;10.50;99.90
18260;DHT22;9256;52.236;5.712;2023-05-16T06:45:29;10.80;99.90
18260;DHT22;9256;52.236;5.712;2023-05-16T06:47:56;10.70;99.90
18260;DHT22;9256;52.236;5.712;2023-05-16T06:50:24;10.60;99.90
18260;DHT22;9256;52.236;5.712;2023-05-16T06:52:51;10.70;99.90
18260;DHT22;9256;52.236;5.712;2023-05-16T06:55:18;10.70;99.90
18260;DHT22;9256;52.236;5.712;2023-05-16T06:57:45;11.00;99.90
18260;DHT22;9256;52.236;5.712;2023-05-16T07:00:13;11.00;99.90
18260;DHT22;9256;52.236;5.712;2023-05-16T07:02:40;10.80;99.90
18260;DHT22;9256;52.236;5.712;2023-05-16T07:05:08;11.10;99.90
18260;DHT22;9256;52.236;5.712;2023-05-16T07:07:36;11.30;99.90
18260;DHT22;9256;52.236;5.712;2023-05-16T07:10:03;11.30;99.90
18260;DHT22;9256;52.236;5.712;2023-05-16T07:12:30;11.20;99.90
18260;DHT22;9256;52.236;5.712;2023-05-16T07:14:57;11.30;99.90
18260;DHT22;9256;52.236;5.712;2023-05-16T07:17:24;11.10;99.90
18260;DHT22;9256;52.236;5.712;2023-05-16T07:19:51;10.90;99.90
18260;DHT22;9256;52.236;5.712;2023-05-16T07:22:18;10.70;99.90
18260;DHT22;9256;52.236;5.712;2023-05-16T07:24:46;10.80;99.90
18260;DHT22;9256;52.236;5.712;2023-05-16T07:27:13;10.80;99.90
18260;DHT22;9256;52.236;5.712;2023-05-16T07:29:41;10.90;99.90
18260;DHT22;9256;52.236;5.712;2023-05-16T07:32:07;11.20;99.90
18260;DHT22;9256;52.236;5.712;2023-05-16T07:34:34;11.00;99.90
18260;DHT22;9256;52.236;5.712;2023-05-16T07:37:01;11.20;99.90
18260;DHT22;9256;52.236;5.712;2023-05-16T07:39:29;11.10;99.90
18260;DHT22;9256;52.236;5.712;2023-05-16T07:41:57;10.90;99.90
18260;DHT22;9256;52.236;5.712;2023-05-16T07:44:24;10.70;99.90
18260;DHT22;9256;52.236;5.712;2023-05-16T07:46:51;10.70;99.90
18260;DHT22;9256;52.236;5.712;2023-05-16T07:49:18;11.00;99.90
18260;DHT22;9256;52.236;5.712;2023-05-16T07:51:45;11.20;99.90
18260;DHT22;9256;52.236;5.712;2023-05-16T07:54:12;11.00;99.90
18260;DHT22;9256;52.236;5.712;2023-05-16T07:56:39;11.20;99.90
18260;DHT22;9256;52.236;5.712;2023-05-16T07:59:07;11.40;99.90
18260;DHT22;9256;52.236;5.712;2023-05-16T08:01:34;11.10;99.90
18260;DHT22;9256;52.236;5.712;2023-05-16T08:04:02;11.60;99.90
18260;DHT22;9256;52.236;5.712;2023-05-16T08:06:28;11.60;99.90
18260;DHT22;9256;52.236;5.712;2023-05-16T08:08:56;11.90;99.90
18260;DHT22;9256;52.236;5.712;2023-05-16T08:11:23;11.90;99.90
18260;DHT22;9256;52.236;5.712;2023-05-16T08:13:50;12.00;99.90
18260;DHT22;9256;52.236;5.712;2023-05-16T08:16:18;12.40;99.90
18260;DHT22;9256;52.236;5.712;2023-05-16T08:18:45;12.50;99.90
18260;DHT22;9256;52.236;5.712;2023-05-16T08:21:12;12.20;99.90
18260;DHT22;9256;52.236;5.712;2023-05-16T08:23:41;12.40;99.90
18260;DHT22;9256;52.236;5.712;2023-05-16T08:26:08;12.80;99.90
18260;DHT22;9256;52.236;5.712;2023-05-16T08:28:35;12.90;99.90
18260;DHT22;9256;52.236;5.712;2023-05-16T08:31:02;13.30;99.90
18260;DHT22;9256;52.236;5.712;2023-05-16T08:33:30;13.40;99.90
18260;DHT22;9256;52.236;5.712;2023-05-16T08:35:57;13.00;99.90
18260;DHT22;9256;52.236;5.712;2023-05-16T08:38:25;12.90;99.90
18260;DHT22;9256;52.236;5.712;2023-05-16T08:40:52;12.80;99.90
18260;DHT22;9256;52.236;5.712;2023-05-16T08:43:19;12.40;99.90
18260;DHT22;9256;52.236;5.712;2023-05-16T08:45:46;12.10;99.90
18260;DHT22;9256;52.236;5.712;2023-05-16T08:48:14;12.10;99.90
18260;DHT22;9256;52.236;5.712;2023-05-16T08:50:43;12.50;99.90
18260;DHT22;9256;52.236;5.712;2023-05-16T08:53:11;12.90;99.90
18260;DHT22;9256;52.236;5.712;2023-05-16T08:55:40;13.30;99.90
18260;DHT22;9256;52.236;5.712;2023-05-16T08:58:08;13.70;99.90
18260;DHT22;9256;52.236;5.712;2023-05-16T09:00:35;14.00;99.90
18260;DHT22;9256;52.236;5.712;2023-05-16T09:03:02;14.00;99.90
18260;DHT22;9256;52.236;5.712;2023-05-16T09:05:29;13.90;99.90
18260;DHT22;9256;52.236;5.712;2023-05-16T09:07:58;13.80;99.90
18260;DHT22;9256;52.236;5.712;2023-05-16T09:10:25;13.30;99.90
18260;DHT22;9256;52.236;5.712;2023-05-16T09:12:52;13.50;99.90
18260;DHT22;9256;52.236;5.712;2023-05-16T09:15:19;13.50;99.90
18260;DHT22;9256;52.236;5.712;2023-05-16T09:17:46;13.50;99.90
18260;DHT22;9256;52.236;5.712;2023-05-16T09:20:14;14.20;99.90
18260;DHT22;9256;52.236;5.712;2023-05-16T09:22:50;14.10;99.90
18260;DHT22;9256;52.236;5.712;2023-05-16T09:25:20;13.90;99.90
18260;DHT22;9256;52.236;5.712;2023-05-16T09:27:47;13.40;99.90
18260;DHT22;9256;52.236;5.712;2023-05-16T09:30:14;13.60;99.90
18260;DHT22;9256;52.236;5.712;2023-05-16T09:32:45;13.70;99.90
18260;DHT22;9256;52.236;5.712;2023-05-16T09:35:15;13.50;99.90
18260;DHT22;9256;52.236;5.712;2023-05-16T09:37:45;13.80;99.90
18260;DHT22;9256;52.236;5.712;2023-05-16T09:40:12;14.50;99.90
18260;DHT22;9256;52.236;5.712;2023-05-16T09:42:42;14.70;99.90
18260;DHT22;9256;52.236;5.712;2023-05-16T09:45:11;14.30;99.90
18260;DHT22;9256;52.236;5.712;2023-05-16T09:47:39;14.00;99.90
18260;DHT22;9256;52.236;5.712;2023-05-16T09:50:12;13.60;99.90
18260;DHT22;9256;52.236;5.712;2023-05-16T09:52:39;13.30;99.90
18260;DHT22;9256;52.236;5.712;2023-05-16T09:55:07;13.20;99.90
18260;DHT22;9256;52.236;5.712;2023-05-16T09:57:36;13.60;99.90
18260;DHT22;9256;52.236;5.712;2023-05-16T10:00:08;13.90;99.90
18260;DHT22;9256;52.236;5.712;2023-05-16T10:02:37;14.40;99.90
18260;DHT22;9256;52.236;5.712;2023-05-16T10:05:05;14.70;99.90
18260;DHT22;9256;52.236;5.712;2023-05-16T10:07:32;14.70;99.90
18260;DHT22;9256;52.236;5.712;2023-05-16T10:10:00;14.80;99.90
18260;DHT22;9256;52.236;5.712;2023-05-16T10:12:32;14.30;99.90
18260;DHT22;9256;52.236;5.712;2023-05-16T10:15:00;14.40;99.90
18260;DHT22;9256;52.236;5.712;2023-05-16T10:17:32;14.50;99.90
18260;DHT22;9256;52.236;5.712;2023-05-16T10:20:00;15.00;99.90
18260;DHT22;9256;52.236;5.712;2023-05-16T10:22:32;14.50;99.90
18260;DHT22;9256;52.236;5.712;2023-05-16T10:25:06;14.80;99.90
18260;DHT22;9256;52.236;5.712;2023-05-16T10:27:35;15.10;99.90
18260;DHT22;9256;52.236;5.712;2023-05-16T10:30:02;15.00;99.90
18260;DHT22;9256;52.236;5.712;2023-05-16T10:32:32;14.80;99.90
18260;DHT22;9256;52.236;5.712;2023-05-16T10:34:59;14.20;99.90
18260;DHT22;9256;52.236;5.712;2023-05-16T10:37:28;13.90;99.90
18260;DHT22;9256;52.236;5.712;2023-05-16T10:39:56;13.70;99.90
18260;DHT22;9256;52.236;5.712;2023-05-16T10:42:23;13.70;99.90
18260;DHT22;9256;52.236;5.712;2023-05-16T10:44:53;13.50;99.90
18260;DHT22;9256;52.236;5.712;2023-05-16T10:47:20;13.10;99.90
18260;DHT22;9256;52.236;5.712;2023-05-16T10:49:49;13.10;99.90
18260;DHT22;9256;52.236;5.712;2023-05-16T10:52:16;13.50;99.90
18260;DHT22;9256;52.236;5.712;2023-05-16T10:54:49;14.30;99.90
18260;DHT22;9256;52.236;5.712;2023-05-16T10:57:18;14.00;99.90
18260;DHT22;9256;52.236;5.712;2023-05-16T10:59:48;14.10;99.90
18260;DHT22;9256;52.236;5.712;2023-05-16T11:02:23;14.10;99.90
18260;DHT22;9256;52.236;5.712;2023-05-16T11:04:54;14.20;99.90
18260;DHT22;9256;52.236;5.712;2023-05-16T11:07:22;14.00;99.90
18260;DHT22;9256;52.236;5.712;2023-05-16T11:10:02;13.90;99.90
18260;DHT22;9256;52.236;5.712;2023-05-16T11:12:50;13.90;99.90
18260;DHT22;9256;52.236;5.712;2023-05-16T11:15:22;13.80;99.90
18260;DHT22;9256;52.236;5.712;2023-05-16T11:17:49;14.00;99.90
18260;DHT22;9256;52.236;5.712;2023-05-16T11:20:29;14.80;99.90
18260;DHT22;9256;52.236;5.712;2023-05-16T11:23:22;15.70;99.90
18260;DHT22;9256;52.236;5.712;2023-05-16T11:25:52;15.60;99.90
18260;DHT22;9256;52.236;5.712;2023-05-16T11:28:20;16.20;99.90
18260;DHT22;9256;52.236;5.712;2023-05-16T11:30:49;16.10;99.90
18260;DHT22;9256;52.236;5.712;2023-05-16T11:33:17;15.20;99.90
18260;DHT22;9256;52.236;5.712;2023-05-16T11:35:59;14.80;99.90
18260;DHT22;9256;52.236;5.712;2023-05-16T11:38:28;14.80;99.90
18260;DHT22;9256;52.236;5.712;2023-05-16T11:41:01;14.70;99.90
18260;DHT22;9256;52.236;5.712;2023-05-16T11:43:28;14.40;99.90
18260;DHT22;9256;52.236;5.712;2023-05-16T11:45:56;14.70;99.90
18260;DHT22;9256;52.236;5.712;2023-05-16T11:48:24;14.90;99.90
18260;DHT22;9256;52.236;5.712;2023-05-16T11:50:52;15.60;99.90
18260;DHT22;9256;52.236;5.712;2023-05-16T11:53:19;15.80;99.90
18260;DHT22;9256;52.236;5.712;2023-05-16T11:55:48;15.80;99.90
18260;DHT22;9256;52.236;5.712;2023-05-16T11:58:17;15.80;99.90
18260;DHT22;9256;52.236;5.712;2023-05-16T12:00:47;15.70;99.90
18260;DHT22;9256;52.236;5.712;2023-05-16T12:03:14;15.10;99.90
18260;DHT22;9256;52.236;5.712;2023-05-16T12:05:49;14.90;99.90
18260;DHT22;9256;52.236;5.712;2023-05-16T12:08:19;14.40;99.90
18260;DHT22;9256;52.236;5.712;2023-05-16T12:10:48;14.20;99.90
18260;DHT22;9256;52.236;5.712;2023-05-16T12:13:16;13.90;99.90
18260;DHT22;9256;52.236;5.712;2023-05-16T12:15:44;13.70;99.90
18260;DHT22;9256;52.236;5.712;2023-05-16T12:18:11;13.80;99.90
18260;DHT22;9256;52.236;5.712;2023-05-16T12:20:39;13.70;99.90
18260;DHT22;9256;52.236;5.712;2023-05-16T12:23:10;13.50;99.90
18260;DHT22;9256;52.236;5.712;2023-05-16T12:25:38;13.30;99.90
18260;DHT22;9256;52.236;5.712;2023-05-16T12:28:08;13.40;99.90
18260;DHT22;9256;52.236;5.712;2023-05-16T12:30:40;13.80;99.90
18260;DHT22;9256;52.236;5.712;2023-05-16T12:33:08;14.50;99.90
18260;DHT22;9256;52.236;5.712;2023-05-16T12:35:38;14.70;99.90
18260;DHT22;9256;52.236;5.712;2023-05-16T12:38:06;15.10;99.90
18260;DHT22;9256;52.236;5.712;2023-05-16T12:40:33;15.30;99.90
18260;DHT22;9256;52.236;5.712;2023-05-16T12:43:04;15.20;99.90
18260;DHT22;9256;52.236;5.712;2023-05-16T12:45:32;15.40;99.90
18260;DHT22;9256;52.236;5.712;2023-05-16T12:48:03;15.60;99.90
18260;DHT22;9256;52.236;5.712;2023-05-16T12:50:32;15.00;99.90
18260;DHT22;9256;52.236;5.712;2023-05-16T12:52:59;14.40;99.90
18260;DHT22;9256;52.236;5.712;2023-05-16T12:55:26;14.20;99.90
18260;DHT22;9256;52.236;5.712;2023-05-16T12:57:55;14.00;99.90
18260;DHT22;9256;52.236;5.712;2023-05-16T13:00:23;13.90;99.90
18260;DHT22;9256;52.236;5.712;2023-05-16T13:02:50;13.90;99.90
18260;DHT22;9256;52.236;5.712;2023-05-16T13:05:17;13.70;99.90
18260;DHT22;9256;52.236;5.712;2023-05-16T13:07:46;13.50;99.90
18260;DHT22;9256;52.236;5.712;2023-05-16T13:10:16;13.30;99.90
18260;DHT22;9256;52.236;5.712;2023-05-16T13:12:43;13.20;99.90
18260;DHT22;9256;52.236;5.712;2023-05-16T13:15:12;13.10;99.90
18260;DHT22;9256;52.236;5.712;2023-05-16T13:17:41;13.00;99.90
18260;DHT22;9256;52.236;5.712;2023-05-16T13:20:09;13.00;99.90
18260;DHT22;9256;52.236;5.712;2023-05-16T13:22:39;12.80;99.90
18260;DHT22;9256;52.236;5.712;2023-05-16T13:25:07;12.50;99.90
18260;DHT22;9256;52.236;5.712;2023-05-16T13:27:35;12.70;99.90
18260;DHT22;9256;52.236;5.712;2023-05-16T13:30:02;12.80;99.90
18260;DHT22;9256;52.236;5.712;2023-05-16T13:32:29;12.80;99.90
18260;DHT22;9256;52.236;5.712;2023-05-16T13:34:57;12.80;99.90
18260;DHT22;9256;52.236;5.712;2023-05-16T13:37:24;12.70;99.90
18260;DHT22;9256;52.236;5.712;2023-05-16T13:39:51;12.70;99.90
18260;DHT22;9256;52.236;5.712;2023-05-16T13:42:19;12.60;99.90
18260;DHT22;9256;52.236;5.712;2023-05-16T13:44:46;12.40;99.90
18260;DHT22;9256;52.236;5.712;2023-05-16T13:47:13;12.60;99.90
18260;DHT22;9256;52.236;5.712;2023-05-16T13:49:40;12.60;99.90
18260;DHT22;9256;52.236;5.712;2023-05-16T13:52:09;12.70;99.90
18260;DHT22;9256;52.236;5.712;2023-05-16T13:54:36;12.90;99.90
18260;DHT22;9256;52.236;5.712;2023-05-16T13:57:04;13.30;99.90
18260;DHT22;9256;52.236;5.712;2023-05-16T13:59:31;13.50;99.90
18260;DHT22;9256;52.236;5.712;2023-05-16T14:01:59;13.40;99.90
18260;DHT22;9256;52.236;5.712;2023-05-16T14:04:25;13.20;99.90
18260;DHT22;9256;52.236;5.712;2023-05-16T14:06:53;13.20;99.90
18260;DHT22;9256;52.236;5.712;2023-05-16T14:09:22;13.00;99.90
18260;DHT22;9256;52.236;5.712;2023-05-16T14:11:49;14.00;99.90
18260;DHT22;9256;52.236;5.712;2023-05-16T14:14:16;14.60;99.90
18260;DHT22;9256;52.236;5.712;2023-05-16T14:16:43;14.40;99.90
18260;DHT22;9256;52.236;5.712;2023-05-16T14:19:10;14.10;99.90
18260;DHT22;9256;52.236;5.712;2023-05-16T14:21:37;14.00;99.90
18260;DHT22;9256;52.236;5.712;2023-05-16T14:24:05;14.10;99.90
18260;DHT22;9256;52.236;5.712;2023-05-16T14:26:34;14.10;99.90
18260;DHT22;9256;52.236;5.712;2023-05-16T14:29:01;14.10;99.90
18260;DHT22;9256;52.236;5.712;2023-05-16T14:31:28;14.10;99.90
18260;DHT22;9256;52.236;5.712;2023-05-16T14:33:55;13.80;99.90
18260;DHT22;9256;52.236;5.712;2023-05-16T14:36:22;13.70;99.90
18260;DHT22;9256;52.236;5.712;2023-05-16T14:38:49;13.70;99.90
18260;DHT22;9256;52.236;5.712;2023-05-16T14:41:16;13.70;99.90
18260;DHT22;9256;52.236;5.712;2023-05-16T14:43:44;13.50;99.90
18260;DHT22;9256;52.236;5.712;2023-05-16T14:46:11;13.50;99.90
18260;DHT22;9256;52.236;5.712;2023-05-16T14:48:38;13.60;99.90
18260;DHT22;9256;52.236;5.712;2023-05-16T14:51:06;13.60;99.90
18260;DHT22;9256;52.236;5.712;2023-05-16T14:53:33;13.30;99.90
18260;DHT22;9256;52.236;5.712;2023-05-16T14:56:00;13.50;99.90
18260;DHT22;9256;52.236;5.712;2023-05-16T14:58:28;13.30;99.90
18260;DHT22;9256;52.236;5.712;2023-05-16T15:00:56;13.30;99.90
18260;DHT22;9256;52.236;5.712;2023-05-16T15:03:23;13.10;99.90
18260;DHT22;9256;52.236;5.712;2023-05-16T15:05:50;12.90;99.90
18260;DHT22;9256;52.236;5.712;2023-05-16T15:08:19;12.70;99.90
18260;DHT22;9256;52.236;5.712;2023-05-16T15:10:46;12.60;99.90
18260;DHT22;9256;52.236;5.712;2023-05-16T15:13:13;12.60;99.90
18260;DHT22;9256;52.236;5.712;2023-05-16T15:15:41;12.70;99.90
18260;DHT22;9256;52.236;5.712;2023-05-16T15:18:10;12.70;99.90
18260;DHT22;9256;52.236;5.712;2023-05-16T15:20:38;12.80;99.90
18260;DHT22;9256;52.236;5.712;2023-05-16T15:23:04;12.90;99.90
18260;DHT22;9256;52.236;5.712;2023-05-16T15:25:32;13.00;99.90
18260;DHT22;9256;52.236;5.712;2023-05-16T15:27:59;13.00;99.90
18260;DHT22;9256;52.236;5.712;2023-05-16T15:30:25;12.90;99.90
18260;DHT22;9256;52.236;5.712;2023-05-16T15:32:52;13.00;99.90
18260;DHT22;9256;52.236;5.712;2023-05-16T15:35:21;12.90;99.90
18260;DHT22;9256;52.236;5.712;2023-05-16T15:37:48;12.90;99.90
18260;DHT22;9256;52.236;5.712;2023-05-16T15:40:15;13.10;99.90
18260;DHT22;9256;52.236;5.712;2023-05-16T15:42:43;13.40;99.90
18260;DHT22;9256;52.236;5.712;2023-05-16T15:45:10;13.70;99.90
18260;DHT22;9256;52.236;5.712;2023-05-16T15:47:37;13.70;99.90
18260;DHT22;9256;52.236;5.712;2023-05-16T15:50:05;13.80;99.90
18260;DHT22;9256;52.236;5.712;2023-05-16T15:52:33;14.00;99.90
18260;DHT22;9256;52.236;5.712;2023-05-16T15:55:01;14.10;99.90
18260;DHT22;9256;52.236;5.712;2023-05-16T15:57:29;14.00;99.90